KRME/RME METAR and TAF weather

Enter ICAO airport designator
Station Type Date Time Source
KRME METAR 2019/04/23 03:53 UTC NOAA

KRME 230353Z AUTO 28004KT 10SM CLR 08/06 A3011 RMK AO2 SLP195 T00830056


Station Type Date Time Source
KRME Decoded METAR 2019/04/23 03:53 UTC NOAA

GRIFFISS AIRFIELD, NY, United States (KRME) 43-14N 075-24W
Apr 22, 2019 - 11:53 PM EDT / 2019.04.23 0353 UTC
Wind: from the W (280 degrees) at 5 MPH (4 KT):0
Visibility: 10 mile(s):0
Sky conditions: clear
Temperature: 46.9 F (8.3 C)
Dew Point: 42.1 F (5.6 C)
Relative Humidity: 83%
Pressure (altimeter): 30.11 in. Hg (1019 hPa)
ob: KRME 230353Z AUTO 28004KT 10SM CLR 08/06 A3011 RMK AO2 SLP195 T00830056
cycle: 4

Station Type Date Time Source
KRME TAF 2019/04/22 18:46 UTC NOAA

TAF KRME 221744Z 2218/2318 28010KT P6SM SKC
FM230200 VRB03KT P6SM SCT060
FM231200 13004KT P6SM FEW006 SCT250

Example: see airport list